Time;durP1;ratioP1;P1;durP2;ratioP2;P2;SDS_P1;SDS_P2;PMS_P1;PMS_P2;Temp;Humidity;BMP_temperature;BMP_pressure;BME280_temperature;BME280_humidity;BME280_pressure;Samples;Min_cycle;Max_cycle;Signal;HPM_P1;HPM_P2
2023/06/10 07:17:38;;;;;;;8.25;7.45;;;20.10;99.90;;;;;;7960563;27;20665;-87
2023/06/10 07:21:24;;;;;;;8.50;7.30;;;20.00;99.90;;;;;;7942138;28;20183;-87
2023/06/10 07:25:10;;;;;;;7.95;7.15;;;20.10;99.90;;;;;;7946692;28;20199;-87
2023/06/10 07:28:55;;;;;;;9.10;7.72;;;20.30;99.90;;;;;;7959872;27;20173;-87
2023/06/10 07:32:41;;;;;;;12.15;6.82;;;20.40;99.90;;;;;;7930396;28;20184;-87
2023/06/10 07:36:28;;;;;;;9.95;7.75;;;20.50;99.90;;;;;;7927702;28;20265;-86
2023/06/10 07:40:13;;;;;;;10.20;7.03;;;20.60;99.90;;;;;;7926602;28;20653;-87
2023/06/10 07:43:59;;;;;;;7.30;6.57;;;20.70;99.90;;;;;;7926786;28;20782;-87
2023/06/10 07:47:45;;;;;;;12.43;8.05;;;20.90;99.90;;;;;;7926391;28;20184;-87
2023/06/10 07:51:30;;;;;;;8.80;7.55;;;20.90;99.90;;;;;;7927020;28;20176;-87
2023/06/10 07:55:16;;;;;;;8.90;8.00;;;21.10;99.90;;;;;;7927256;28;20278;-87
2023/06/10 07:59:02;;;;;;;12.23;7.57;;;21.10;99.90;;;;;;7925894;28;20176;-87
2023/06/10 08:02:47;;;;;;;12.00;7.35;;;21.20;99.90;;;;;;7926143;28;20204;-87
2023/06/10 08:06:33;;;;;;;9.73;7.47;;;21.40;99.90;;;;;;7925708;28;20696;-88
2023/06/10 08:10:19;;;;;;;8.40;7.60;;;21.80;99.90;;;;;;7925723;28;20177;-88
2023/06/10 08:14:04;;;;;;;9.30;7.65;;;22.10;99.90;;;;;;7925504;28;20211;-88
2023/06/10 08:17:51;;;;;;;12.25;7.95;;;22.40;99.90;;;;;;7926011;28;20251;-87
2023/06/10 08:21:39;;;;;;;9.63;7.60;;;22.40;99.90;;;;;;7953708;28;20216;-88
2023/06/10 08:25:25;;;;;;;8.93;8.02;;;22.40;99.90;;;;;;7956758;28;20195;-87
2023/06/10 08:29:12;;;;;;;10.02;7.50;;;22.30;99.90;;;;;;7936752;28;20187;-87
2023/06/10 08:32:57;;;;;;;9.10;7.97;;;22.30;99.90;;;;;;7935568;28;20179;-87
2023/06/10 08:36:45;;;;;;;10.43;7.68;;;22.30;99.90;;;;;;7935658;28;20306;-87
2023/06/10 08:40:30;;;;;;;9.55;8.05;;;22.20;99.90;;;;;;7935359;28;20183;-87
2023/06/10 08:44:29;;;;;;;8.90;7.90;;;22.30;99.90;;;;;;7935246;28;20203;-87
2023/06/10 08:48:19;;;;;;;9.27;7.90;;;22.30;99.90;;;;;;7936497;28;20172;-87
2023/06/10 08:52:06;;;;;;;8.77;7.88;;;22.30;99.90;;;;;;7908065;28;20188;-87
2023/06/10 08:55:55;;;;;;;10.50;7.00;;;22.40;99.90;;;;;;7903170;28;20215;-88
2023/06/10 08:59:41;;;;;;;9.35;6.93;;;22.50;99.90;;;;;;7903254;28;20267;-88
2023/06/10 09:03:31;;;;;;;10.07;7.32;;;22.60;99.90;;;;;;7903097;28;20196;-87
2023/06/10 09:07:17;;;;;;;7.15;6.45;;;22.70;99.90;;;;;;7903150;28;20719;-87
2023/06/10 09:11:03;;;;;;;13.95;7.20;;;22.80;99.90;;;;;;7904462;28;20168;-88
2023/06/10 09:14:48;;;;;;;9.27;6.95;;;22.90;99.90;;;;;;7902992;28;20218;-87
2023/06/10 09:18:34;;;;;;;9.85;6.68;;;23.10;99.90;;;;;;7904209;28;20211;-87
2023/06/10 09:22:21;;;;;;;8.05;7.10;;;23.20;99.90;;;;;;7924901;28;20187;-87
2023/06/10 09:26:11;;;;;;;8.20;6.55;;;23.20;99.90;;;;;;7935196;28;20284;-88
2023/06/10 09:29:57;;;;;;;8.45;7.30;;;23.20;99.90;;;;;;7935368;28;20705;-87
2023/06/10 09:33:43;;;;;;;8.90;6.90;;;23.30;99.90;;;;;;7933589;28;20673;-87
2023/06/10 09:37:29;;;;;;;11.80;7.03;;;23.30;99.90;;;;;;7931239;28;20552;-88
2023/06/10 09:41:15;;;;;;;10.07;6.85;;;23.30;99.90;;;;;;7902857;28;20168;-87
2023/06/10 09:45:01;;;;;;;8.20;6.50;;;23.30;99.90;;;;;;7902223;28;20192;-87
2023/06/10 09:48:48;;;;;;;9.48;6.97;;;23.40;99.90;;;;;;7901795;28;20267;-87
2023/06/10 09:52:33;;;;;;;13.05;6.65;;;23.50;99.90;;;;;;7901824;28;20176;-87
2023/06/10 09:56:20;;;;;;;9.15;6.45;;;23.60;99.90;;;;;;7931445;28;20256;-88
2023/06/10 10:00:11;;;;;;;8.30;6.57;;;23.60;99.90;;;;;;7932902;28;20183;-87
2023/06/10 10:03:57;;;;;;;9.32;6.35;;;23.70;99.80;;;;;;7932989;28;20222;-87
2023/06/10 10:07:43;;;;;;;10.00;6.30;;;23.80;99.10;;;;;;7935710;27;20211;-87
2023/06/10 10:11:32;;;;;;;9.10;5.97;;;23.70;97.60;;;;;;7932587;28;20176;-88
2023/06/10 10:15:18;;;;;;;9.98;6.13;;;23.80;96.80;;;;;;7861558;22;20223;-90
2023/06/10 10:19:31;;;;;;;10.65;6.18;;;24.20;95.30;;;;;;7775986;28;20175;-88
2023/06/10 10:23:24;;;;;;;7.22;6.38;;;24.40;94.40;;;;;;7835162;23;20245;-85
2023/06/10 10:27:18;;;;;;;6.63;5.90;;;24.50;94.20;;;;;;7835712;28;20548;-85
2023/06/10 10:31:11;;;;;;;10.95;6.32;;;24.60;94.40;;;;;;7838038;28;20224;-86
2023/06/10 10:35:15;;;;;;;8.40;6.07;;;24.80;94.30;;;;;;7836695;28;20198;-86
2023/06/10 10:39:03;;;;;;;9.48;5.72;;;25.00;92.40;;;;;;7847456;28;20170;-85
2023/06/10 10:42:49;;;;;;;9.55;5.90;;;25.10;92.30;;;;;;7842979;28;20860;-86
2023/06/10 10:47:07;;;;;;;10.05;6.10;;;25.10;91.20;;;;;;7836180;28;20178;-86
2023/06/10 10:50:57;;;;;;;10.60;7.00;;;25.20;90.50;;;;;;7832839;28;20210;-85
2023/06/10 10:54:47;;;;;;;10.20;6.30;;;25.20;90.80;;;;;;7816213;28;20206;-86
2023/06/10 10:58:33;;;;;;;7.68;6.55;;;25.20;90.00;;;;;;7815821;28;20178;-87
2023/06/10 11:02:35;;;;;;;9.98;6.60;;;25.00;90.00;;;;;;7816441;28;20213;-85
2023/06/10 11:06:21;;;;;;;14.05;6.72;;;25.10;91.20;;;;;;7814718;28;20193;-85
2023/06/10 11:10:10;;;;;;;9.73;6.82;;;25.30;90.60;;;;;;7842657;28;20189;-87
2023/06/10 11:14:02;;;;;;;8.68;7.05;;;25.50;90.80;;;;;;7853822;28;20534;-86
2023/06/10 11:18:08;;;;;;;9.05;7.15;;;25.30;90.90;;;;;;7834611;28;20647;-87
2023/06/10 11:22:02;;;;;;;9.40;7.00;;;25.30;91.00;;;;;;7821541;28;20221;-86
2023/06/10 11:25:48;;;;;;;9.48;7.65;;;25.20;91.40;;;;;;7817294;28;20190;-86
2023/06/10 11:29:33;;;;;;;10.50;6.80;;;24.90;90.90;;;;;;7835277;28;20189;-86
2023/06/10 11:33:19;;;;;;;10.95;7.00;;;25.10;91.20;;;;;;7836557;28;20201;-86
2023/06/10 11:37:05;;;;;;;7.97;6.90;;;25.30;92.60;;;;;;7834080;28;20277;-87
2023/06/10 11:40:51;;;;;;;9.98;6.57;;;25.50;91.30;;;;;;7835715;28;20201;-86
2023/06/10 11:44:37;;;;;;;11.25;6.20;;;25.70;91.10;;;;;;7835049;28;20228;-86
2023/06/10 11:48:23;;;;;;;7.30;6.55;;;25.70;90.80;;;;;;7836279;28;20170;-87
2023/06/10 11:52:09;;;;;;;9.80;6.75;;;25.80;89.50;;;;;;7835722;28;20207;-87
2023/06/10 11:55:54;;;;;;;8.25;7.15;;;25.90;86.40;;;;;;7834436;28;20629;-89
2023/06/10 11:59:40;;;;;;;7.22;6.53;;;25.90;86.70;;;;;;7835919;28;20177;-85
2023/06/10 12:03:26;;;;;;;8.00;6.30;;;26.00;87.00;;;;;;7839754;28;20210;-86
2023/06/10 12:07:22;;;;;;;12.32;6.60;;;26.00;86.50;;;;;;7842470;28;20190;-85
2023/06/10 12:11:08;;;;;;;7.57;6.63;;;25.90;83.80;;;;;;7841494;28;20201;-84
2023/06/10 12:14:56;;;;;;;7.40;6.55;;;25.80;83.90;;;;;;7827167;28;20699;-87
2023/06/10 12:18:44;;;;;;;11.52;6.40;;;25.70;82.80;;;;;;7827089;28;20183;-90
2023/06/10 12:22:41;;;;;;;7.20;6.45;;;25.80;80.00;;;;;;7839957;28;20273;-90
2023/06/10 12:26:47;;;;;;;11.23;6.25;;;25.80;81.90;;;;;;7840042;28;20174;-90
2023/06/10 12:30:33;;;;;;;9.60;6.50;;;25.90;83.00;;;;;;7840405;28;20582;-90
2023/06/10 12:34:19;;;;;;;11.00;6.43;;;26.00;85.30;;;;;;7840437;28;20205;-90
2023/06/10 12:38:08;;;;;;;7.07;6.15;;;26.00;82.30;;;;;;7841114;28;20264;-90
2023/06/10 12:41:54;;;;;;;8.20;6.38;;;26.10;82.30;;;;;;7841449;28;20194;-90
2023/06/10 12:45:43;;;;;;;10.63;7.28;;;26.10;81.90;;;;;;7840879;28;20184;-91
2023/06/10 12:49:28;;;;;;;7.45;6.68;;;26.20;81.30;;;;;;7841415;28;20279;-91
2023/06/10 12:53:14;;;;;;;12.27;7.40;;;26.20;82.50;;;;;;7852736;28;20201;-92
2023/06/10 12:57:00;;;;;;;8.32;7.20;;;26.10;81.60;;;;;;7861247;28;20702;-90
2023/06/10 13:00:46;;;;;;;8.05;6.90;;;26.20;83.00;;;;;;7840845;28;20205;-90
2023/06/10 13:04:31;;;;;;;7.03;6.20;;;26.20;80.20;;;;;;7839801;28;20542;-90
2023/06/10 13:08:17;;;;;;;9.82;6.60;;;26.30;80.80;;;;;;7839843;28;20170;-90
2023/06/10 13:12:03;;;;;;;7.63;6.25;;;26.40;78.70;;;;;;7838878;28;20194;-90
2023/06/10 13:15:49;;;;;;;10.48;6.65;;;26.40;77.00;;;;;;7838871;28;20572;-90
2023/06/10 13:19:35;;;;;;;11.57;6.15;;;26.40;78.40;;;;;;7839971;28;20682;-90
2023/06/10 13:23:21;;;;;;;8.38;5.40;;;26.40;78.60;;;;;;7837120;28;20597;-90
2023/06/10 13:27:07;;;;;;;10.13;5.18;;;26.50;73.30;;;;;;7838534;28;20769;-90
2023/06/10 13:30:52;;;;;;;6.95;4.93;;;26.50;72.80;;;;;;7838340;28;20551;-90
2023/06/10 13:34:39;;;;;;;8.00;5.50;;;26.50;73.80;;;;;;7838763;28;20351;-90
2023/06/10 13:38:24;;;;;;;10.25;5.05;;;26.50;73.90;;;;;;7838233;28;20178;-90
2023/06/10 13:42:10;;;;;;;8.85;5.20;;;26.60;74.00;;;;;;7838643;28;20232;-90
2023/06/10 13:45:55;;;;;;;8.05;5.22;;;26.70;75.40;;;;;;7837736;28;20182;-90
2023/06/10 13:49:41;;;;;;;6.30;4.97;;;26.70;72.50;;;;;;7837703;28;20770;-90
2023/06/10 13:53:27;;;;;;;9.07;6.20;;;26.70;69.40;;;;;;7837523;28;20197;-91
2023/06/10 13:57:13;;;;;;;6.38;5.15;;;26.70;67.60;;;;;;7836850;28;20216;-90
2023/06/10 14:00:58;;;;;;;8.63;5.30;;;26.70;69.10;;;;;;7837650;28;20272;-90
2023/06/10 14:04:44;;;;;;;6.43;5.18;;;26.70;68.90;;;;;;7837850;28;20312;-92
2023/06/10 14:08:29;;;;;;;7.85;5.10;;;26.70;68.50;;;;;;7837292;28;20190;-90
2023/06/10 14:12:15;;;;;;;7.68;4.90;;;26.70;68.30;;;;;;7837089;28;20198;-91
2023/06/10 14:16:02;;;;;;;7.57;4.78;;;26.70;67.10;;;;;;7837267;28;20247;-90
2023/06/10 14:19:48;;;;;;;7.90;5.18;;;26.70;66.50;;;;;;7836833;28;20178;-90
2023/06/10 14:23:33;;;;;;;5.68;4.80;;;26.70;65.70;;;;;;7836894;28;20218;-90
2023/06/10 14:27:19;;;;;;;7.55;5.30;;;26.70;66.50;;;;;;7828603;28;20278;-90
2023/06/10 14:31:05;;;;;;;8.25;5.10;;;26.80;66.80;;;;;;7836536;28;20198;-90
2023/06/10 14:34:51;;;;;;;6.60;5.32;;;26.80;67.40;;;;;;7848281;28;20201;-92
2023/06/10 14:38:36;;;;;;;8.13;6.07;;;26.80;66.20;;;;;;7861786;28;20533;-90
2023/06/10 14:42:22;;;;;;;8.68;5.50;;;26.70;65.20;;;;;;7835931;28;20652;-90
2023/06/10 14:46:08;;;;;;;9.27;5.30;;;26.80;66.40;;;;;;7836552;28;20194;-89
2023/06/10 14:49:53;;;;;;;6.18;5.57;;;26.80;67.40;;;;;;7836007;28;20212;-90
2023/06/10 14:53:39;;;;;;;6.68;5.82;;;26.80;66.70;;;;;;7836014;28;20205;-90
2023/06/10 14:57:25;;;;;;;8.93;6.43;;;26.80;66.80;;;;;;7836960;28;20216;-90
2023/06/10 15:01:10;;;;;;;7.90;6.32;;;26.80;67.70;;;;;;7835231;28;20197;-90
2023/06/10 15:04:56;;;;;;;8.00;5.80;;;26.90;68.40;;;;;;7835673;28;20182;-90
2023/06/10 15:08:42;;;;;;;8.23;6.05;;;26.90;70.10;;;;;;7835566;28;20185;-90
2023/06/10 15:12:27;;;;;;;8.82;6.07;;;26.90;69.60;;;;;;7835773;28;20202;-90
2023/06/10 15:16:14;;;;;;;7.55;6.60;;;26.90;70.50;;;;;;7835820;28;20206;-90
2023/06/10 15:20:00;;;;;;;7.57;6.20;;;26.90;70.50;;;;;;7830609;28;20193;-90
2023/06/10 15:23:47;;;;;;;6.43;5.82;;;26.90;70.20;;;;;;7835260;28;20209;-90
2023/06/10 15:27:32;;;;;;;6.90;6.00;;;26.90;68.80;;;;;;7835793;28;20186;-91
2023/06/10 15:31:18;;;;;;;9.60;6.90;;;26.90;67.10;;;;;;7837039;28;20197;-90
2023/06/10 15:35:04;;;;;;;9.77;6.07;;;26.90;66.90;;;;;;7836961;28;20205;-90
2023/06/10 15:38:50;;;;;;;7.75;6.95;;;26.90;67.00;;;;;;7840991;28;20181;-90
2023/06/10 15:42:36;;;;;;;6.45;5.85;;;27.00;66.80;;;;;;7841456;28;20225;-90
2023/06/10 15:46:21;;;;;;;8.10;6.28;;;26.90;67.10;;;;;;7841478;28;20182;-90
2023/06/10 15:50:09;;;;;;;13.88;6.45;;;26.90;67.60;;;;;;7844580;28;20186;-87
2023/06/10 15:53:55;;;;;;;7.30;5.45;;;27.00;68.00;;;;;;7846612;28;20312;-86
2023/06/10 15:57:41;;;;;;;8.23;5.60;;;26.80;66.70;;;;;;7845055;28;20273;-87
2023/06/10 16:01:26;;;;;;;8.65;5.95;;;26.80;68.20;;;;;;7838355;28;20209;-86
2023/06/10 16:05:12;;;;;;;9.57;5.75;;;26.70;68.40;;;;;;7832008;28;20205;-90
2023/06/10 16:08:58;;;;;;;23.45;16.55;;;26.70;68.30;;;;;;7843489;28;20181;-90
2023/06/10 16:12:43;;;;;;;8.52;7.53;;;26.70;69.50;;;;;;7839520;28;20237;-90
2023/06/10 16:16:29;;;;;;;7.07;6.38;;;26.80;70.10;;;;;;7847489;28;20823;-91
2023/06/10 16:20:14;;;;;;;6.45;5.72;;;26.80;70.20;;;;;;7869408;28;20179;-90
2023/06/10 16:24:00;;;;;;;6.57;5.97;;;26.80;70.40;;;;;;7840998;28;20178;-90
2023/06/10 16:27:46;;;;;;;7.72;5.80;;;26.90;70.70;;;;;;7839161;28;20243;-90
2023/06/10 16:31:31;;;;;;;8.80;5.70;;;26.90;67.50;;;;;;7839998;28;20205;-90
2023/06/10 16:35:18;;;;;;;5.63;4.85;;;26.80;66.90;;;;;;7839300;28;20212;-89
2023/06/10 16:39:03;;;;;;;8.70;5.97;;;26.90;68.40;;;;;;7839789;28;20644;-90
2023/06/10 16:42:49;;;;;;;8.93;5.47;;;26.90;67.90;;;;;;7839803;28;20622;-90
2023/06/10 16:46:34;;;;;;;7.97;5.88;;;27.00;67.90;;;;;;7839656;28;20186;-90
2023/06/10 16:50:20;;;;;;;7.97;5.22;;;27.00;68.50;;;;;;7837777;28;20190;-90
2023/06/10 16:54:06;;;;;;;7.05;5.55;;;26.90;68.20;;;;;;7839478;28;20248;-90
2023/06/10 16:57:52;;;;;;;5.70;5.20;;;27.00;69.30;;;;;;7839719;28;20560;-90
2023/06/10 17:01:37;;;;;;;6.88;5.47;;;27.00;69.80;;;;;;7840683;28;20742;-90
2023/06/10 17:05:23;;;;;;;8.50;5.60;;;27.00;68.50;;;;;;7841361;28;20182;-90
2023/06/10 17:09:08;;;;;;;11.32;6.97;;;27.00;70.50;;;;;;7840912;28;20189;-89
2023/06/10 17:12:54;;;;;;;7.20;5.40;;;27.00;70.70;;;;;;7839016;28;20204;-90
2023/06/10 17:16:39;;;;;;;9.20;5.72;;;27.00;70.30;;;;;;7838471;28;20206;-89
2023/06/10 17:20:26;;;;;;;6.13;4.85;;;26.90;70.70;;;;;;7838996;28;20198;-90
2023/06/10 17:24:12;;;;;;;6.60;5.78;;;27.00;72.60;;;;;;7834489;28;20190;-90
2023/06/10 17:27:58;;;;;;;7.35;5.35;;;27.10;73.00;;;;;;7839539;28;20245;-90
2023/06/10 17:31:43;;;;;;;7.20;5.20;;;27.10;73.30;;;;;;7838451;28;20224;-90
2023/06/10 17:35:29;;;;;;;8.38;5.35;;;27.20;73.50;;;;;;7837915;28;20206;-90
2023/06/10 17:39:15;;;;;;;9.25;5.88;;;27.20;72.90;;;;;;7838898;28;20381;-91
2023/06/10 17:43:00;;;;;;;7.35;5.30;;;27.20;71.20;;;;;;7837565;28;20252;-90
2023/06/10 17:46:46;;;;;;;12.38;5.93;;;27.10;72.40;;;;;;7837537;28;20178;-90
2023/06/10 17:50:32;;;;;;;8.13;5.50;;;27.10;73.10;;;;;;7837423;28;20284;-90
2023/06/10 17:54:18;;;;;;;9.55;5.38;;;27.10;73.10;;;;;;7837955;28;20181;-90
2023/06/10 17:58:04;;;;;;;8.38;5.78;;;27.10;74.60;;;;;;7842225;28;20177;-91
2023/06/10 18:01:49;;;;;;;8.77;5.07;;;27.10;75.30;;;;;;7868388;28;20606;-90
2023/06/10 18:05:35;;;;;;;10.15;5.93;;;27.10;76.00;;;;;;7837963;28;20564;-89
2023/06/10 18:09:22;;;;;;;9.90;5.45;;;27.00;76.50;;;;;;7837968;28;20178;-90
2023/06/10 18:13:07;;;;;;;8.30;5.60;;;27.10;77.30;;;;;;7831277;28;20203;-89
2023/06/10 18:16:53;;;;;;;11.15;5.88;;;27.00;78.30;;;;;;7834865;28;20202;-90
2023/06/10 18:20:39;;;;;;;7.43;5.55;;;27.00;79.00;;;;;;7837177;28;20218;-90
2023/06/10 18:24:24;;;;;;;13.15;6.50;;;27.00;79.70;;;;;;7826619;28;20193;-90
2023/06/10 18:28:10;;;;;;;9.88;5.93;;;26.90;80.20;;;;;;7836435;28;20182;-89
2023/06/10 18:31:56;;;;;;;8.70;5.93;;;26.90;80.60;;;;;;7836492;28;20198;-89
2023/06/10 18:35:41;;;;;;;14.60;5.60;;;26.80;81.00;;;;;;7833823;28;20697;-90
2023/06/10 18:39:28;;;;;;;9.38;6.20;;;26.80;81.50;;;;;;7837927;28;20317;-89
2023/06/10 18:43:14;;;;;;;13.57;6.72;;;26.80;81.90;;;;;;7838203;28;20248;-90
2023/06/10 18:47:00;;;;;;;9.32;6.40;;;26.70;82.20;;;;;;7847804;28;20189;-89
2023/06/10 18:50:45;;;;;;;10.55;6.40;;;26.60;82.40;;;;;;7836329;28;20251;-90
2023/06/10 18:54:32;;;;;;;17.77;6.80;;;26.60;82.60;;;;;;7836050;28;20185;-90
2023/06/10 18:58:17;;;;;;;14.48;6.40;;;26.50;83.00;;;;;;7814516;28;20269;-90
2023/06/10 19:02:03;;;;;;;11.73;7.70;;;26.50;83.30;;;;;;7823761;28;20198;-90
2023/06/10 19:05:49;;;;;;;11.07;6.93;;;26.40;83.40;;;;;;7835612;28;20195;-90
2023/06/10 19:09:35;;;;;;;13.02;6.97;;;26.30;83.50;;;;;;7835461;28;20208;-90
2023/06/10 19:13:21;;;;;;;11.57;6.15;;;26.20;83.50;;;;;;7834893;28;20683;-90
2023/06/10 19:17:07;;;;;;;11.63;6.55;;;26.20;83.50;;;;;;7834896;28;20193;-85
2023/06/10 19:20:52;;;;;;;9.10;5.78;;;26.00;80.20;;;;;;7836454;28;20221;-85
2023/06/10 19:24:39;;;;;;;12.55;6.40;;;25.80;79.60;;;;;;7835455;28;20193;-85
2023/06/10 19:28:25;;;;;;;14.32;6.30;;;25.60;80.00;;;;;;7835658;28;20260;-85
2023/06/10 19:32:10;;;;;;;6.47;5.65;;;25.50;80.20;;;;;;7836263;28;20197;-92
2023/06/10 19:35:56;;;;;;;9.27;5.85;;;25.40;80.00;;;;;;7836542;28;20209;-90
2023/06/10 19:39:42;;;;;;;6.32;5.63;;;25.40;80.00;;;;;;7836296;28;20208;-89
2023/06/10 19:43:27;;;;;;;6.50;5.80;;;25.30;80.20;;;;;;7873158;28;20581;-90
2023/06/10 19:47:13;;;;;;;5.80;5.20;;;25.20;80.50;;;;;;7838013;28;20184;-90
2023/06/10 19:50:59;;;;;;;7.32;5.43;;;25.10;80.80;;;;;;7837761;28;20232;-91
2023/06/10 19:54:45;;;;;;;7.15;5.80;;;25.10;80.60;;;;;;7836393;28;20230;-90
2023/06/10 19:58:30;;;;;;;7.93;6.03;;;25.00;80.50;;;;;;7836242;28;20182;-89
2023/06/10 20:02:16;;;;;;;6.43;5.80;;;24.90;80.70;;;;;;7837240;28;20194;-90
2023/06/10 20:06:02;;;;;;;8.73;5.95;;;24.90;80.70;;;;;;7836047;28;20186;-89
2023/06/10 20:09:48;;;;;;;8.52;5.90;;;24.80;80.40;;;;;;7837815;28;20174;-90
2023/06/10 20:13:33;;;;;;;7.10;6.40;;;24.80;80.60;;;;;;7837388;28;20216;-90
2023/06/10 20:17:19;;;;;;;10.77;6.35;;;24.70;80.90;;;;;;7831703;28;20698;-90
2023/06/10 20:21:05;;;;;;;6.72;5.97;;;24.70;80.60;;;;;;7831652;28;20213;-90
2023/06/10 20:24:54;;;;;;;8.15;6.43;;;24.60;80.60;;;;;;7841228;28;20190;-90
2023/06/10 20:28:40;;;;;;;6.85;6.22;;;24.50;80.00;;;;;;7842809;28;20186;-91
2023/06/10 20:32:25;;;;;;;7.32;6.15;;;24.40;80.40;;;;;;7843632;28;20209;-90
2023/06/10 20:36:11;;;;;;;8.57;6.25;;;24.30;80.70;;;;;;7839545;28;20217;-90
2023/06/10 20:39:56;;;;;;;7.57;6.13;;;24.20;80.40;;;;;;7814594;28;20213;-90
2023/06/10 20:43:42;;;;;;;7.88;5.53;;;24.20;80.70;;;;;;7811701;28;20199;-89
2023/06/10 20:47:28;;;;;;;7.00;6.30;;;24.20;80.40;;;;;;7821772;28;20198;-89
2023/06/10 20:51:14;;;;;;;9.18;6.03;;;24.10;80.60;;;;;;7811608;28;20194;-90
2023/06/10 20:55:00;;;;;;;8.82;7.00;;;24.10;80.80;;;;;;7821852;28;20687;-90
2023/06/10 20:58:45;;;;;;;12.63;5.90;;;24.00;80.70;;;;;;7841910;28;20231;-90
2023/06/10 21:02:31;;;;;;;6.95;5.93;;;24.00;81.70;;;;;;7846172;28;20723;-90
2023/06/10 21:06:22;;;;;;;9.05;6.00;;;24.00;82.20;;;;;;7851401;28;20181;-90
2023/06/10 21:10:08;;;;;;;6.47;5.70;;;24.00;81.40;;;;;;7872005;28;20193;-88
2023/06/10 21:13:54;;;;;;;6.93;6.07;;;23.90;80.60;;;;;;7840754;28;20189;-90
2023/06/10 21:17:40;;;;;;;8.43;6.03;;;23.90;81.70;;;;;;7829366;28;20838;-90
2023/06/10 21:21:26;;;;;;;8.35;6.00;;;23.80;80.80;;;;;;7843829;28;20574;-91
2023/06/10 21:25:11;;;;;;;8.30;6.50;;;23.70;80.40;;;;;;7877290;28;20200;-90
2023/06/10 21:28:57;;;;;;;7.93;6.57;;;23.70;82.10;;;;;;7880573;28;20254;-89
2023/06/10 21:32:53;;;;;;;9.05;6.38;;;23.60;82.20;;;;;;7863432;28;20221;-90
2023/06/10 21:36:38;;;;;;;7.15;6.45;;;23.60;82.40;;;;;;7809480;28;20361;-90
2023/06/10 21:40:24;;;;;;;7.32;6.25;;;23.50;82.80;;;;;;7834102;28;20204;-90
2023/06/10 21:44:10;;;;;;;9.13;6.00;;;23.50;82.10;;;;;;7839860;28;20193;-90
2023/06/10 21:47:55;;;;;;;7.35;6.43;;;23.40;82.50;;;;;;7840067;28;20188;-90
2023/06/10 21:51:42;;;;;;;6.97;5.50;;;23.40;82.90;;;;;;7833760;28;20210;-90
2023/06/10 21:55:28;;;;;;;12.73;5.82;;;23.40;82.30;;;;;;7833395;28;20217;-89
2023/06/10 21:59:14;;;;;;;8.52;5.90;;;23.30;82.30;;;;;;7838737;28;20320;-90
2023/06/10 22:03:00;;;;;;;6.05;5.30;;;23.30;83.00;;;;;;7835829;28;20201;-90
2023/06/10 22:06:46;;;;;;;6.18;5.57;;;23.20;82.90;;;;;;7823182;28;20206;-90
2023/06/10 22:10:31;;;;;;;12.27;5.63;;;23.20;82.40;;;;;;7807929;28;20198;-90
2023/06/10 22:14:17;;;;;;;6.78;5.00;;;23.10;83.00;;;;;;7823217;28;20229;-90
2023/06/10 22:18:06;;;;;;;6.10;5.18;;;23.00;83.00;;;;;;7838656;28;20213;-90
2023/06/10 22:21:52;;;;;;;5.63;4.90;;;23.00;83.00;;;;;;7859190;28;20209;-90
2023/06/10 22:25:37;;;;;;;7.13;4.70;;;22.90;82.80;;;;;;7833681;28;20272;-89
2023/06/10 22:29:23;;;;;;;10.73;4.85;;;22.80;83.30;;;;;;7837874;28;20182;-89
2023/06/10 22:33:09;;;;;;;5.60;4.90;;;22.80;82.50;;;;;;7838179;28;20200;-89
2023/06/10 22:36:54;;;;;;;7.47;5.32;;;22.70;83.40;;;;;;7836920;28;20263;-90
2023/06/10 22:40:40;;;;;;;9.60;4.82;;;22.70;83.50;;;;;;7837537;28;20198;-90
2023/06/10 22:44:25;;;;;;;7.70;4.65;;;22.60;83.40;;;;;;7837708;28;20232;-90
2023/06/10 22:48:11;;;;;;;7.75;4.97;;;22.60;83.30;;;;;;7836764;28;20655;-90
2023/06/10 22:51:57;;;;;;;12.30;4.90;;;22.50;83.20;;;;;;7837441;28;20204;-90
2023/06/10 22:55:42;;;;;;;5.55;4.90;;;22.40;83.30;;;;;;7837279;28;20690;-90
2023/06/10 22:59:28;;;;;;;7.45;4.70;;;22.40;83.40;;;;;;7836852;28;20598;-90
2023/06/10 23:03:14;;;;;;;5.72;4.00;;;22.30;83.40;;;;;;7837822;28;20205;-89
2023/06/10 23:07:00;;;;;;;6.45;4.88;;;22.30;83.60;;;;;;7859485;28;20190;-90
2023/06/10 23:10:45;;;;;;;4.57;3.65;;;22.20;83.30;;;;;;7852867;28;20737;-90
2023/06/10 23:14:31;;;;;;;5.20;3.92;;;22.20;83.60;;;;;;7837666;28;20181;-89
2023/06/10 23:18:16;;;;;;;5.97;4.60;;;22.10;83.30;;;;;;7838186;28;20182;-90
2023/06/10 23:22:03;;;;;;;6.32;4.20;;;22.00;83.50;;;;;;7836840;28;20403;-90
2023/06/10 23:25:49;;;;;;;5.18;4.05;;;21.90;82.70;;;;;;7836681;28;20186;-90
2023/06/10 23:29:35;;;;;;;5.78;4.40;;;21.90;83.30;;;;;;7837468;28;20235;-90
2023/06/10 23:33:20;;;;;;;7.70;4.07;;;21.80;83.30;;;;;;7836926;28;20205;-90
2023/06/10 23:37:10;;;;;;;9.27;4.20;;;21.70;82.70;;;;;;7836212;28;20202;-90
2023/06/10 23:40:56;;;;;;;4.07;3.50;;;21.70;82.80;;;;;;7836966;28;20705;-90
2023/06/10 23:44:41;;;;;;;6.10;3.55;;;21.60;82.80;;;;;;7836671;28;20698;-90
2023/06/10 23:48:27;;;;;;;6.00;3.63;;;21.50;83.40;;;;;;7833111;28;20572;-89
2023/06/10 23:52:13;;;;;;;6.85;3.85;;;21.50;83.60;;;;;;7836625;28;20194;-89
2023/06/10 23:56:01;;;;;;;6.15;3.80;;;21.40;83.30;;;;;;7828596;28;20692;-89
2023/06/10 23:59:47;;;;;;;6.45;4.15;;;21.30;83.50;;;;;;7838540;28;20269;-90
